sensor_id;sensor_type;location;lat;lon;timestamp;pressure;altitude;pressure_sealevel;temperature;humidity
85400;BME280;75813;48.758;9.290;2024-01-30T00:01:13;98685.91;;;3.29;75.70
85400;BME280;75813;48.758;9.290;2024-01-30T00:03:38;98698.66;;;3.27;75.36
85400;BME280;75813;48.758;9.290;2024-01-30T00:06:04;98690.16;;;3.25;75.63
85400;BME280;75813;48.758;9.290;2024-01-30T00:08:29;98686.72;;;3.30;75.61
85400;BME280;75813;48.758;9.290;2024-01-30T00:10:54;98682.72;;;3.32;75.20
85400;BME280;75813;48.758;9.290;2024-01-30T00:13:20;98680.06;;;3.32;74.88
85400;BME280;75813;48.758;9.290;2024-01-30T00:15:45;98691.25;;;3.29;75.13
85400;BME280;75813;48.758;9.290;2024-01-30T00:18:11;98686.06;;;3.17;74.73
85400;BME280;75813;48.758;9.290;2024-01-30T00:20:36;98690.56;;;3.12;75.42
85400;BME280;75813;48.758;9.290;2024-01-30T00:23:02;98687.09;;;3.11;75.10
85400;BME280;75813;48.758;9.290;2024-01-30T00:25:27;98693.53;;;3.15;75.39
85400;BME280;75813;48.758;9.290;2024-01-30T00:27:53;98691.38;;;3.12;75.80
85400;BME280;75813;48.758;9.290;2024-01-30T00:30:18;98677.03;;;3.18;74.82
85400;BME280;75813;48.758;9.290;2024-01-30T00:32:44;98686.69;;;3.24;75.35
85400;BME280;75813;48.758;9.290;2024-01-30T00:35:09;98687.25;;;3.32;75.19
85400;BME280;75813;48.758;9.290;2024-01-30T00:37:36;98691.56;;;3.38;74.93
85400;BME280;75813;48.758;9.290;2024-01-30T00:40:01;98686.53;;;3.41;74.94
85400;BME280;75813;48.758;9.290;2024-01-30T00:42:26;98691.03;;;3.41;74.48
85400;BME280;75813;48.758;9.290;2024-01-30T00:44:52;98689.16;;;3.36;74.73
85400;BME280;75813;48.758;9.290;2024-01-30T00:47:17;98683.78;;;3.31;75.28
85400;BME280;75813;48.758;9.290;2024-01-30T00:49:43;98692.50;;;3.21;74.86
85400;BME280;75813;48.758;9.290;2024-01-30T00:52:08;98694.53;;;3.09;75.00
85400;BME280;75813;48.758;9.290;2024-01-30T00:54:34;98692.38;;;3.06;75.36
85400;BME280;75813;48.758;9.290;2024-01-30T00:56:59;98692.88;;;3.03;75.70
85400;BME280;75813;48.758;9.290;2024-01-30T00:59:24;98700.59;;;3.00;76.04
85400;BME280;75813;48.758;9.290;2024-01-30T01:01:50;98691.50;;;2.96;75.75
85400;BME280;75813;48.758;9.290;2024-01-30T01:04:16;98694.13;;;2.91;76.48
85400;BME280;75813;48.758;9.290;2024-01-30T01:06:42;98702.56;;;2.83;76.72
85400;BME280;75813;48.758;9.290;2024-01-30T01:09:11;98696.63;;;2.75;76.96
85400;BME280;75813;48.758;9.290;2024-01-30T01:11:36;98699.03;;;2.77;76.37
85400;BME280;75813;48.758;9.290;2024-01-30T01:14:03;98706.19;;;2.76;76.80
85400;BME280;75813;48.758;9.290;2024-01-30T01:16:28;98695.38;;;2.83;76.39
85400;BME280;75813;48.758;9.290;2024-01-30T01:18:54;98700.72;;;2.88;76.30
85400;BME280;75813;48.758;9.290;2024-01-30T01:21:19;98700.78;;;2.93;76.19
85400;BME280;75813;48.758;9.290;2024-01-30T01:23:44;98701.03;;;2.92;76.11
85400;BME280;75813;48.758;9.290;2024-01-30T01:26:10;98702.34;;;2.89;76.06
85400;BME280;75813;48.758;9.290;2024-01-30T01:28:35;98700.72;;;2.88;76.26
85400;BME280;75813;48.758;9.290;2024-01-30T01:31:01;98694.06;;;2.86;76.85
85400;BME280;75813;48.758;9.290;2024-01-30T01:33:31;98693.47;;;2.78;76.85
85400;BME280;75813;48.758;9.290;2024-01-30T01:35:58;98698.22;;;2.76;76.86
85400;BME280;75813;48.758;9.290;2024-01-30T01:38:24;98691.75;;;2.67;76.81
85400;BME280;75813;48.758;9.290;2024-01-30T01:40:49;98686.94;;;2.64;77.23
85400;BME280;75813;48.758;9.290;2024-01-30T01:43:14;98683.75;;;2.62;77.14
85400;BME280;75813;48.758;9.290;2024-01-30T01:45:40;98693.81;;;2.60;77.70
85400;BME280;75813;48.758;9.290;2024-01-30T01:48:05;98695.97;;;2.63;77.45
85400;BME280;75813;48.758;9.290;2024-01-30T01:50:31;98683.75;;;2.62;77.88
85400;BME280;75813;48.758;9.290;2024-01-30T01:52:58;98689.09;;;2.67;78.04
85400;BME280;75813;48.758;9.290;2024-01-30T01:55:24;98693.13;;;2.70;77.73
85400;BME280;75813;48.758;9.290;2024-01-30T01:57:53;98696.31;;;2.72;77.28
85400;BME280;75813;48.758;9.290;2024-01-30T02:00:19;98693.66;;;2.72;77.51
85400;BME280;75813;48.758;9.290;2024-01-30T02:02:45;98697.56;;;2.64;77.80
85400;BME280;75813;48.758;9.290;2024-01-30T02:05:11;98692.19;;;2.59;77.88
85400;BME280;75813;48.758;9.290;2024-01-30T02:07:37;98702.00;;;2.54;77.67
85400;BME280;75813;48.758;9.290;2024-01-30T02:10:02;98701.69;;;2.50;78.12
85400;BME280;75813;48.758;9.290;2024-01-30T02:12:29;98701.69;;;2.50;78.03
85400;BME280;75813;48.758;9.290;2024-01-30T02:14:54;98702.91;;;2.43;78.34
85400;BME280;75813;48.758;9.290;2024-01-30T02:17:20;98701.00;;;2.38;78.46
85400;BME280;75813;48.758;9.290;2024-01-30T02:19:46;98703.88;;;2.31;78.79
85400;BME280;75813;48.758;9.290;2024-01-30T02:22:11;98701.16;;;2.26;78.98
85400;BME280;75813;48.758;9.290;2024-01-30T02:24:38;98700.91;;;2.28;79.25
85400;BME280;75813;48.758;9.290;2024-01-30T02:27:03;98704.38;;;2.28;79.19
85400;BME280;75813;48.758;9.290;2024-01-30T02:29:29;98696.63;;;2.27;79.81
85400;BME280;75813;48.758;9.290;2024-01-30T02:31:54;98703.06;;;2.31;79.85
85400;BME280;75813;48.758;9.290;2024-01-30T02:34:19;98689.78;;;2.31;79.86
85400;BME280;75813;48.758;9.290;2024-01-30T02:36:45;98694.34;;;2.36;79.83
85400;BME280;75813;48.758;9.290;2024-01-30T02:39:11;98698.69;;;2.42;80.33
85400;BME280;75813;48.758;9.290;2024-01-30T02:41:36;98697.38;;;2.44;80.42
85400;BME280;75813;48.758;9.290;2024-01-30T02:44:05;98688.41;;;2.50;79.81
85400;BME280;75813;48.758;9.290;2024-01-30T02:46:30;98691.91;;;2.56;79.54
85400;BME280;75813;48.758;9.290;2024-01-30T02:48:56;98693.28;;;2.58;79.62
85400;BME280;75813;48.758;9.290;2024-01-30T02:51:21;98695.38;;;2.56;78.97
85400;BME280;75813;48.758;9.290;2024-01-30T02:53:46;98695.88;;;2.53;79.42
85400;BME280;75813;48.758;9.290;2024-01-30T02:56:12;98689.19;;;2.51;78.58
85400;BME280;75813;48.758;9.290;2024-01-30T02:58:39;98689.91;;;2.41;78.67
85400;BME280;75813;48.758;9.290;2024-01-30T03:01:05;98692.72;;;2.35;79.45
85400;BME280;75813;48.758;9.290;2024-01-30T03:03:31;98695.91;;;2.31;79.59
85400;BME280;75813;48.758;9.290;2024-01-30T03:05:56;98681.56;;;2.33;79.93
85400;BME280;75813;48.758;9.290;2024-01-30T03:08:21;98686.31;;;2.30;79.43
85400;BME280;75813;48.758;9.290;2024-01-30T03:10:47;98687.13;;;2.31;79.78
85400;BME280;75813;48.758;9.290;2024-01-30T03:13:13;98679.94;;;2.31;79.55
85400;BME280;75813;48.758;9.290;2024-01-30T03:15:38;98691.91;;;2.29;79.08
85400;BME280;75813;48.758;9.290;2024-01-30T03:18:04;98686.59;;;2.29;79.72
85400;BME280;75813;48.758;9.290;2024-01-30T03:20:29;98681.50;;;2.27;79.50
85400;BME280;75813;48.758;9.290;2024-01-30T03:22:55;98684.97;;;2.28;79.36
85400;BME280;75813;48.758;9.290;2024-01-30T03:25:21;98679.09;;;2.26;79.36
85400;BME280;75813;48.758;9.290;2024-01-30T03:27:46;98685.22;;;2.26;79.41
85400;BME280;75813;48.758;9.290;2024-01-30T03:30:12;98687.56;;;2.23;79.46
85400;BME280;75813;48.758;9.290;2024-01-30T03:32:37;98692.94;;;2.28;79.29
85400;BME280;75813;48.758;9.290;2024-01-30T03:35:03;98686.88;;;2.33;79.53
85400;BME280;75813;48.758;9.290;2024-01-30T03:37:28;98694.13;;;2.37;79.16
85400;BME280;75813;48.758;9.290;2024-01-30T03:39:54;98684.28;;;2.38;79.26
85400;BME280;75813;48.758;9.290;2024-01-30T03:42:19;98691.75;;;2.41;78.84
85400;BME280;75813;48.758;9.290;2024-01-30T03:44:44;98692.56;;;2.41;79.41
85400;BME280;75813;48.758;9.290;2024-01-30T03:47:10;98689.09;;;2.41;78.97
85400;BME280;75813;48.758;9.290;2024-01-30T03:49:35;98696.25;;;2.40;78.80
85400;BME280;75813;48.758;9.290;2024-01-30T03:52:00;98693.38;;;2.42;79.00
85400;BME280;75813;48.758;9.290;2024-01-30T03:54:26;98689.09;;;2.41;79.06
85400;BME280;75813;48.758;9.290;2024-01-30T03:56:51;98694.41;;;2.41;79.17
85400;BME280;75813;48.758;9.290;2024-01-30T03:59:16;98691.47;;;2.42;78.73
85400;BME280;75813;48.758;9.290;2024-01-30T04:01:47;98689.63;;;2.43;78.75
85400;BME280;75813;48.758;9.290;2024-01-30T04:04:12;98693.41;;;2.47;78.63
85400;BME280;75813;48.758;9.290;2024-01-30T04:06:38;98697.13;;;2.46;78.59
85400;BME280;75813;48.758;9.290;2024-01-30T04:09:03;98692.28;;;2.43;78.48
85400;BME280;75813;48.758;9.290;2024-01-30T04:11:28;98699.16;;;2.39;78.49
85400;BME280;75813;48.758;9.290;2024-01-30T04:13:54;98690.66;;;2.37;78.51
85400;BME280;75813;48.758;9.290;2024-01-30T04:16:23;98694.34;;;2.36;79.23
85400;BME280;75813;48.758;9.290;2024-01-30T04:18:48;98694.34;;;2.36;78.94
85400;BME280;75813;48.758;9.290;2024-01-30T04:21:14;98699.38;;;2.32;78.99
85400;BME280;75813;48.758;9.290;2024-01-30T04:23:40;98688.50;;;2.34;78.84
85400;BME280;75813;48.758;9.290;2024-01-30T04:26:06;98693.75;;;2.28;78.63
85400;BME280;75813;48.758;9.290;2024-01-30T04:28:31;98691.16;;;2.34;78.74
85400;BME280;75813;48.758;9.290;2024-01-30T04:30:56;98692.69;;;2.29;78.95
85400;BME280;75813;48.758;9.290;2024-01-30T04:33:22;98689.25;;;2.29;78.75
85400;BME280;75813;48.758;9.290;2024-01-30T04:35:47;98691.31;;;2.27;78.77
85400;BME280;75813;48.758;9.290;2024-01-30T04:38:12;98689.72;;;2.26;79.25
85400;BME280;75813;48.758;9.290;2024-01-30T04:40:40;98686.81;;;2.27;nan
85400;BME280;75813;48.758;9.290;2024-01-30T04:43:05;98685.72;;;2.23;79.00
85400;BME280;75813;48.758;9.290;2024-01-30T04:45:30;98694.72;;;2.22;79.10
85400;BME280;75813;48.758;9.290;2024-01-30T04:47:56;98691.53;;;2.20;79.12
85400;BME280;75813;48.758;9.290;2024-01-30T04:50:21;98691.53;;;2.20;78.96
85400;BME280;75813;48.758;9.290;2024-01-30T04:52:46;98693.63;;;2.18;79.33
85400;BME280;75813;48.758;9.290;2024-01-30T04:55:12;98692.28;;;2.16;79.13
85400;BME280;75813;48.758;9.290;2024-01-30T04:57:37;98699.66;;;2.14;79.30
85400;BME280;75813;48.758;9.290;2024-01-30T05:00:03;98695.91;;;2.10;79.22
85400;BME280;75813;48.758;9.290;2024-01-30T05:02:28;98695.06;;;2.04;79.27
85400;BME280;75813;48.758;9.290;2024-01-30T05:04:54;98689.16;;;1.80;79.47
85400;BME280;75813;48.758;9.290;2024-01-30T05:07:19;98697.19;;;1.85;79.55
85400;BME280;75813;48.758;9.290;2024-01-30T05:09:45;98698.44;;;1.78;79.58
85400;BME280;75813;48.758;9.290;2024-01-30T05:12:10;98695.38;;;1.69;80.06
85400;BME280;75813;48.758;9.290;2024-01-30T05:14:36;98711.50;;;1.63;80.46
85400;BME280;75813;48.758;9.290;2024-01-30T05:17:01;98700.81;;;1.58;80.39
85400;BME280;75813;48.758;9.290;2024-01-30T05:19:28;98699.13;;;1.52;80.38
85400;BME280;75813;48.758;9.290;2024-01-30T05:21:54;98704.91;;;1.49;80.56
85400;BME280;75813;48.758;9.290;2024-01-30T05:24:19;98705.88;;;1.43;80.92
85400;BME280;75813;48.758;9.290;2024-01-30T05:26:44;98702.09;;;1.38;80.95
85400;BME280;75813;48.758;9.290;2024-01-30T05:29:10;98705.75;;;1.32;81.26
85400;BME280;75813;48.758;9.290;2024-01-30T05:31:35;98712.31;;;1.30;81.34
85400;BME280;75813;48.758;9.290;2024-01-30T05:34:01;98715.47;;;1.27;81.80
85400;BME280;75813;48.758;9.290;2024-01-30T05:36:26;98706.38;;;1.23;81.76
85400;BME280;75813;48.758;9.290;2024-01-30T05:38:52;98708.00;;;1.24;81.91
85400;BME280;75813;48.758;9.290;2024-01-30T05:41:18;98709.91;;;1.28;81.74
85400;BME280;75813;48.758;9.290;2024-01-30T05:43:43;98714.41;;;1.28;81.62
85400;BME280;75813;48.758;9.290;2024-01-30T05:46:08;98703.56;;;1.29;81.83
85400;BME280;75813;48.758;9.290;2024-01-30T05:48:34;98711.19;;;1.26;81.50
85400;BME280;75813;48.758;9.290;2024-01-30T05:51:01;98711.69;;;1.23;81.56
85400;BME280;75813;48.758;9.290;2024-01-30T05:53:26;98708.22;;;1.22;81.94
85400;BME280;75813;48.758;9.290;2024-01-30T05:55:52;98710.88;;;1.22;82.04
85400;BME280;75813;48.758;9.290;2024-01-30T05:58:17;98718.28;;;1.20;81.86
85400;BME280;75813;48.758;9.290;2024-01-30T06:00:43;98718.03;;;1.22;82.37
85400;BME280;75813;48.758;9.290;2024-01-30T06:03:08;98711.69;;;1.23;82.29
85400;BME280;75813;48.758;9.290;2024-01-30T06:05:34;98715.13;;;1.23;82.18
85400;BME280;75813;48.758;9.290;2024-01-30T06:07:59;98711.59;;;1.18;82.04
85400;BME280;75813;48.758;9.290;2024-01-30T06:10:24;98718.50;;;1.19;82.19
85400;BME280;75813;48.758;9.290;2024-01-30T06:12:50;98722.78;;;1.20;82.10
85400;BME280;75813;48.758;9.290;2024-01-30T06:15:15;98716.91;;;1.18;82.08
85400;BME280;75813;48.758;9.290;2024-01-30T06:17:41;98708.72;;;1.19;82.47
85400;BME280;75813;48.758;9.290;2024-01-30T06:20:06;98712.50;;;1.23;82.39
85400;BME280;75813;48.758;9.290;2024-01-30T06:22:32;98708.47;;;1.21;81.96
85400;BME280;75813;48.758;9.290;2024-01-30T06:24:58;98707.09;;;1.18;82.03
85400;BME280;75813;48.758;9.290;2024-01-30T06:27:23;98713.69;;;1.16;81.94
85400;BME280;75813;48.758;9.290;2024-01-30T06:29:48;98723.50;;;1.15;81.98
85400;BME280;75813;48.758;9.290;2024-01-30T06:32:14;98723.72;;;1.14;82.13
85400;BME280;75813;48.758;9.290;2024-01-30T06:34:41;98722.06;;;1.08;82.16
85400;BME280;75813;48.758;9.290;2024-01-30T06:37:06;98723.91;;;1.07;82.53
85400;BME280;75813;48.758;9.290;2024-01-30T06:39:31;98731.53;;;1.04;82.62
85400;BME280;75813;48.758;9.290;2024-01-30T06:41:57;98728.06;;;1.03;83.09
85400;BME280;75813;48.758;9.290;2024-01-30T06:44:22;98723.25;;;1.00;82.54
85400;BME280;75813;48.758;9.290;2024-01-30T06:46:48;98721.88;;;0.98;82.83
85400;BME280;75813;48.758;9.290;2024-01-30T06:49:13;98727.91;;;0.93;82.83
85400;BME280;75813;48.758;9.290;2024-01-30T06:51:39;98724.13;;;0.89;82.66
85400;BME280;75813;48.758;9.290;2024-01-30T06:54:04;98730.81;;;0.91;82.73
85400;BME280;75813;48.758;9.290;2024-01-30T06:56:30;98725.16;;;0.88;83.23
85400;BME280;75813;48.758;9.290;2024-01-30T06:58:55;98725.16;;;0.88;82.72
85400;BME280;75813;48.758;9.290;2024-01-30T07:01:27;98723.78;;;0.85;82.71
85400;BME280;75813;48.758;9.290;2024-01-30T07:03:52;98726.94;;;0.82;83.07
85400;BME280;75813;48.758;9.290;2024-01-30T07:06:18;98724.81;;;0.84;83.95
85400;BME280;75813;48.758;9.290;2024-01-30T07:08:43;98734.16;;;0.87;83.78
85400;BME280;75813;48.758;9.290;2024-01-30T07:11:08;98733.69;;;0.90;83.41
85400;BME280;75813;48.758;9.290;2024-01-30T07:13:34;98736.09;;;0.91;83.47
85400;BME280;75813;48.758;9.290;2024-01-30T07:16:00;98737.38;;;0.89;83.69
85400;BME280;75813;48.758;9.290;2024-01-30T07:18:25;98743.47;;;0.89;83.48
85400;BME280;75813;48.758;9.290;2024-01-30T07:20:50;98739.78;;;0.90;83.52
85400;BME280;75813;48.758;9.290;2024-01-30T07:23:16;98745.66;;;0.92;83.04
85400;BME280;75813;48.758;9.290;2024-01-30T07:25:46;98743.31;;;0.96;83.31
85400;BME280;75813;48.758;9.290;2024-01-30T07:28:15;98740.13;;;0.94;83.49
85400;BME280;75813;48.758;9.290;2024-01-30T07:30:44;98751.53;;;0.95;83.37
85400;BME280;75813;48.758;9.290;2024-01-30T07:33:09;98755.78;;;0.96;82.85
85400;BME280;75813;48.758;9.290;2024-01-30T07:35:35;98760.03;;;0.97;83.64
85400;BME280;75813;48.758;9.290;2024-01-30T07:38:01;98752.34;;;0.95;83.13
85400;BME280;75813;48.758;9.290;2024-01-30T07:40:26;98754.72;;;0.97;83.40
85400;BME280;75813;48.758;9.290;2024-01-30T07:42:53;98756.56;;;0.96;83.14
85400;BME280;75813;48.758;9.290;2024-01-30T07:45:19;98750.72;;;0.94;82.99
85400;BME280;75813;48.758;9.290;2024-01-30T07:47:50;98754.66;;;0.91;82.94
85400;BME280;75813;48.758;9.290;2024-01-30T07:50:15;98752.78;;;0.92;83.37
85400;BME280;75813;48.758;9.290;2024-01-30T07:52:41;98741.72;;;0.95;83.38
85400;BME280;75813;48.758;9.290;2024-01-30T07:55:07;98748.97;;;1.00;83.23
85400;BME280;75813;48.758;9.290;2024-01-30T07:57:33;98745.75;;;0.98;82.94
85400;BME280;75813;48.758;9.290;2024-01-30T07:59:59;98757.81;;;1.05;83.33
85400;BME280;75813;48.758;9.290;2024-01-30T08:02:25;98758.47;;;1.12;83.12
85400;BME280;75813;48.758;9.290;2024-01-30T08:04:50;98755.09;;;1.17;82.79
85400;BME280;75813;48.758;9.290;2024-01-30T08:07:16;98757.25;;;1.20;82.40
85400;BME280;75813;48.758;9.290;2024-01-30T08:09:43;98753.19;;;1.29;82.41
85400;BME280;75813;48.758;9.290;2024-01-30T08:12:09;98747.94;;;1.34;82.01
85400;BME280;75813;48.758;9.290;2024-01-30T08:14:34;98746.97;;;1.40;81.64
85400;BME280;75813;48.758;9.290;2024-01-30T08:16:59;98746.75;;;1.42;81.10
85400;BME280;75813;48.758;9.290;2024-01-30T08:19:25;98753.19;;;1.46;81.58
85400;BME280;75813;48.758;9.290;2024-01-30T08:21:50;98748.72;;;1.51;81.86
85400;BME280;75813;48.758;9.290;2024-01-30T08:24:15;98741.84;;;1.50;81.33
85400;BME280;75813;48.758;9.290;2024-01-30T08:26:41;98733.94;;;1.55;81.60
85400;BME280;75813;48.758;9.290;2024-01-30T08:29:06;98744.63;;;1.60;81.01
85400;BME280;75813;48.758;9.290;2024-01-30T08:31:31;98745.75;;;1.64;81.40
85400;BME280;75813;48.758;9.290;2024-01-30T08:33:57;98737.63;;;1.71;80.95
85400;BME280;75813;48.758;9.290;2024-01-30T08:36:22;98736.13;;;1.80;80.50
85400;BME280;75813;48.758;9.290;2024-01-30T08:38:47;98751.34;;;1.84;80.27
85400;BME280;75813;48.758;9.290;2024-01-30T08:41:13;98747.47;;;1.92;80.64
85400;BME280;75813;48.758;9.290;2024-01-30T08:43:38;98744.34;;;1.95;80.31
85400;BME280;75813;48.758;9.290;2024-01-30T08:46:04;98742.38;;;2.07;80.22
85400;BME280;75813;48.758;9.290;2024-01-30T08:48:29;98742.00;;;2.20;79.69
85400;BME280;75813;48.758;9.290;2024-01-30T08:50:55;98732.28;;;2.31;79.62
85400;BME280;75813;48.758;9.290;2024-01-30T08:53:20;98738.56;;;2.42;79.23
85400;BME280;75813;48.758;9.290;2024-01-30T08:55:46;98739.47;;;2.52;78.80
85400;BME280;75813;48.758;9.290;2024-01-30T08:58:11;98740.38;;;2.63;78.13
85400;BME280;75813;48.758;9.290;2024-01-30T09:00:37;98745.56;;;2.74;77.76
85400;BME280;75813;48.758;9.290;2024-01-30T09:03:03;98739.28;;;2.86;76.90
85400;BME280;75813;48.758;9.290;2024-01-30T09:05:28;98764.38;;;2.95;76.83
85400;BME280;75813;48.758;9.290;2024-01-30T09:07:54;98758.03;;;3.01;76.43
85400;BME280;75813;48.758;9.290;2024-01-30T09:10:19;98758.19;;;3.16;76.03
85400;BME280;75813;48.758;9.290;2024-01-30T09:12:45;98760.09;;;3.20;75.06
85400;BME280;75813;48.758;9.290;2024-01-30T09:15:11;98769.44;;;3.23;75.95
85400;BME280;75813;48.758;9.290;2024-01-30T09:17:36;98763.06;;;3.24;74.23
85400;BME280;75813;48.758;9.290;2024-01-30T09:20:02;98769.53;;;3.33;74.21
85400;BME280;75813;48.758;9.290;2024-01-30T09:22:27;98767.69;;;3.39;74.93
85400;BME280;75813;48.758;9.290;2024-01-30T09:24:52;98770.66;;;3.42;74.91
85400;BME280;75813;48.758;9.290;2024-01-30T09:27:18;98767.75;;;3.44;74.46
85400;BME280;75813;48.758;9.290;2024-01-30T09:29:43;98770.69;;;3.47;74.87
85400;BME280;75813;48.758;9.290;2024-01-30T09:32:09;98763.59;;;3.58;72.93
85400;BME280;75813;48.758;9.290;2024-01-30T09:34:34;98760.19;;;3.67;74.29
85400;BME280;75813;48.758;9.290;2024-01-30T09:37:00;98766.13;;;3.75;73.80
85400;BME280;75813;48.758;9.290;2024-01-30T09:39:25;98764.25;;;3.80;74.15
85400;BME280;75813;48.758;9.290;2024-01-30T09:44:25;98761.97;;;3.94;73.69
85400;BME280;75813;48.758;9.290;2024-01-30T09:46:53;98764.69;;;4.04;73.52
85400;BME280;75813;48.758;9.290;2024-01-30T09:49:19;98760.50;;;4.18;72.03
85400;BME280;75813;48.758;9.290;2024-01-30T09:51:45;98760.28;;;4.25;72.19
85400;BME280;75813;48.758;9.290;2024-01-30T09:54:14;98766.47;;;4.40;71.74
85400;BME280;75813;48.758;9.290;2024-01-30T09:56:40;98752.91;;;4.52;71.31
85400;BME280;75813;48.758;9.290;2024-01-30T09:59:05;98764.16;;;4.64;71.21
85400;BME280;75813;48.758;9.290;2024-01-30T10:01:31;98770.56;;;4.68;71.11
85400;BME280;75813;48.758;9.290;2024-01-30T10:03:56;98773.00;;;4.75;71.28
85400;BME280;75813;48.758;9.290;2024-01-30T10:06:24;98769.28;;;4.81;71.21
85400;BME280;75813;48.758;9.290;2024-01-30T10:08:50;98768.53;;;4.95;70.42
85400;BME280;75813;48.758;9.290;2024-01-30T10:11:15;98766.66;;;4.96;70.79
85400;BME280;75813;48.758;9.290;2024-01-30T10:13:40;98770.41;;;5.05;70.87
85400;BME280;75813;48.758;9.290;2024-01-30T10:16:06;98765.34;;;5.14;68.79
85400;BME280;75813;48.758;9.290;2024-01-30T10:18:32;98768.81;;;5.19;69.90
85400;BME280;75813;48.758;9.290;2024-01-30T10:20:59;98762.16;;;5.22;70.04
85400;BME280;75813;48.758;9.290;2024-01-30T10:23:24;98763.22;;;5.36;69.70
85400;BME280;75813;48.758;9.290;2024-01-30T10:25:51;98761.88;;;5.43;69.47
85400;BME280;75813;48.758;9.290;2024-01-30T10:28:16;98764.84;;;5.57;69.01
85400;BME280;75813;48.758;9.290;2024-01-30T10:30:42;98767.22;;;5.64;69.31
85400;BME280;75813;48.758;9.290;2024-01-30T10:33:07;98762.44;;;5.71;69.11
85400;BME280;75813;48.758;9.290;2024-01-30T10:35:33;98757.84;;;5.76;69.19
85400;BME280;75813;48.758;9.290;2024-01-30T10:37:59;98765.66;;;5.88;68.92
85400;BME280;75813;48.758;9.290;2024-01-30T10:40:28;98763.75;;;5.93;67.69
85400;BME280;75813;48.758;9.290;2024-01-30T10:42:55;98760.81;;;6.00;68.01
85400;BME280;75813;48.758;9.290;2024-01-30T10:45:21;98754.63;;;6.10;68.34
85400;BME280;75813;48.758;9.290;2024-01-30T10:47:53;98760.50;;;6.12;68.54
85400;BME280;75813;48.758;9.290;2024-01-30T10:50:19;98753.28;;;6.17;68.32
85400;BME280;75813;48.758;9.290;2024-01-30T10:52:46;98755.66;;;6.24;67.69
85400;BME280;75813;48.758;9.290;2024-01-30T10:55:13;98755.41;;;6.25;67.98
85400;BME280;75813;48.758;9.290;2024-01-30T10:57:41;98740.91;;;6.31;67.98
85400;BME280;75813;48.758;9.290;2024-01-30T11:00:08;98741.44;;;6.38;67.87
85400;BME280;75813;48.758;9.290;2024-01-30T11:02:39;98741.97;;;6.40;65.81
85400;BME280;75813;48.758;9.290;2024-01-30T11:05:05;98741.94;;;6.45;66.86
85400;BME280;75813;48.758;9.290;2024-01-30T11:07:31;98730.69;;;6.48;66.68
85400;BME280;75813;48.758;9.290;2024-01-30T11:12:30;98738.13;;;6.62;66.84
85400;BME280;75813;48.758;9.290;2024-01-30T11:15:05;98742.38;;;6.68;66.36
85400;BME280;75813;48.758;9.290;2024-01-30T11:20:19;98747.41;;;6.79;64.81
85400;BME280;75813;48.758;9.290;2024-01-30T11:22:46;98730.19;;;6.90;64.45
85400;BME280;75813;48.758;9.290;2024-01-30T11:25:17;98738.72;;;6.98;64.54
85400;BME280;75813;48.758;9.290;2024-01-30T11:27:43;98729.22;;;7.15;64.46
85400;BME280;75813;48.758;9.290;2024-01-30T11:30:09;98724.94;;;7.14;64.03
85400;BME280;75813;48.758;9.290;2024-01-30T11:32:35;98728.16;;;7.16;64.62
85400;BME280;75813;48.758;9.290;2024-01-30T11:35:03;98725.72;;;7.20;64.42
85400;BME280;75813;48.758;9.290;2024-01-30T11:37:30;98732.56;;;7.31;63.16
85400;BME280;75813;48.758;9.290;2024-01-30T11:39:56;98728.31;;;7.30;63.52
85400;BME280;75813;48.758;9.290;2024-01-30T11:42:23;98729.00;;;7.46;62.49
85400;BME280;75813;48.758;9.290;2024-01-30T11:44:50;98720.91;;;7.51;62.71
85400;BME280;75813;48.758;9.290;2024-01-30T11:47:16;98731.34;;;7.52;62.45
85400;BME280;75813;48.758;9.290;2024-01-30T11:49:43;98724.84;;;7.58;63.58
85400;BME280;75813;48.758;9.290;2024-01-30T11:52:08;98732.34;;;7.61;63.15
85400;BME280;75813;48.758;9.290;2024-01-30T11:54:34;98706.78;;;7.69;63.49
85400;BME280;75813;48.758;9.290;2024-01-30T11:56:59;98713.91;;;7.83;62.69
85400;BME280;75813;48.758;9.290;2024-01-30T11:59:25;98706.06;;;7.87;62.96
85400;BME280;75813;48.758;9.290;2024-01-30T12:01:51;98707.38;;;7.90;62.08
85400;BME280;75813;48.758;9.290;2024-01-30T12:04:17;98708.38;;;7.99;62.21
85400;BME280;75813;48.758;9.290;2024-01-30T12:06:43;98709.38;;;8.03;62.43
85400;BME280;75813;48.758;9.290;2024-01-30T12:09:09;98704.78;;;8.08;62.49
85400;BME280;75813;48.758;9.290;2024-01-30T12:11:48;98697.53;;;8.09;62.08
85400;BME280;75813;48.758;9.290;2024-01-30T12:14:15;98700.50;;;8.07;61.85
85400;BME280;75813;48.758;9.290;2024-01-30T12:16:41;98693.91;;;8.18;61.35
85400;BME280;75813;48.758;9.290;2024-01-30T12:19:07;98695.47;;;8.24;62.25
85400;BME280;75813;48.758;9.290;2024-01-30T12:21:33;98689.81;;;8.26;61.94
85400;BME280;75813;48.758;9.290;2024-01-30T12:23:59;98684.94;;;8.28;62.30
85400;BME280;75813;48.758;9.290;2024-01-30T12:26:25;98676.88;;;8.33;62.03
85400;BME280;75813;48.758;9.290;2024-01-30T12:28:54;98677.09;;;8.37;61.98
85400;BME280;75813;48.758;9.290;2024-01-30T12:31:32;98683.41;;;8.46;62.87
85400;BME280;75813;48.758;9.290;2024-01-30T12:33:59;98684.66;;;8.53;61.76
85400;BME280;75813;48.758;9.290;2024-01-30T12:36:25;98686.69;;;8.61;62.40
85400;BME280;75813;48.758;9.290;2024-01-30T12:38:51;98687.38;;;8.72;62.11
85400;BME280;75813;48.758;9.290;2024-01-30T12:41:17;98674.84;;;8.81;62.30
85400;BME280;75813;48.758;9.290;2024-01-30T12:43:42;98676.88;;;8.89;61.84
85400;BME280;75813;48.758;9.290;2024-01-30T12:46:08;98677.41;;;8.91;60.75
85400;BME280;75813;48.758;9.290;2024-01-30T12:48:33;98681.38;;;8.94;60.69
85400;BME280;75813;48.758;9.290;2024-01-30T12:50:59;98669.94;;;8.88;60.17
85400;BME280;75813;48.758;9.290;2024-01-30T12:53:24;98675.25;;;8.93;60.91
85400;BME280;75813;48.758;9.290;2024-01-30T12:55:50;98672.75;;;8.97;60.53
85400;BME280;75813;48.758;9.290;2024-01-30T12:58:16;98676.38;;;9.06;61.33
85400;BME280;75813;48.758;9.290;2024-01-30T13:00:41;98674.81;;;9.18;60.14
85400;BME280;75813;48.758;9.290;2024-01-30T13:03:09;98683.00;;;9.27;60.45
85400;BME280;75813;48.758;9.290;2024-01-30T13:05:35;98683.13;;;9.36;60.17
85400;BME280;75813;48.758;9.290;2024-01-30T13:08:00;98675.63;;;9.51;58.84
85400;BME280;75813;48.758;9.290;2024-01-30T13:10:26;98676.63;;;9.55;59.09